createdAt,value
2023-05-10T00:00:52.444Z,13.70
2023-05-10T00:02:25.926Z,13.70
2023-05-10T00:03:59.111Z,13.70
2023-05-10T00:05:33.963Z,13.70
2023-05-10T00:07:06.984Z,13.60
2023-05-10T00:08:40.195Z,13.70
2023-05-10T00:10:13.789Z,13.60
2023-05-10T00:11:46.980Z,13.60
2023-05-10T00:13:20.050Z,13.70
2023-05-10T00:14:52.270Z,13.60
2023-05-10T00:16:25.442Z,13.60
2023-05-10T00:17:58.786Z,13.70
2023-05-10T00:19:32.119Z,13.70
2023-05-10T00:21:07.425Z,13.60
2023-05-10T00:22:40.496Z,13.60
2023-05-10T00:24:13.932Z,13.60
2023-05-10T00:25:47.034Z,13.60
2023-05-10T00:27:19.224Z,13.60
2023-05-10T00:28:52.268Z,13.60
2023-05-10T00:30:25.219Z,13.70
2023-05-10T00:31:58.255Z,13.60
2023-05-10T00:33:31.481Z,13.60
2023-05-10T00:35:04.965Z,13.60
2023-05-10T00:36:39.424Z,13.60
2023-05-10T00:38:13.056Z,13.60
2023-05-10T00:39:46.142Z,13.60
2023-05-10T00:41:19.222Z,13.60
2023-05-10T00:42:53.224Z,13.60
2023-05-10T00:44:26.366Z,13.60
2023-05-10T00:45:59.958Z,13.60
2023-05-10T00:47:34.504Z,13.60
2023-05-10T00:49:08.848Z,13.60
2023-05-10T00:50:42.396Z,13.60
2023-05-10T00:52:17.585Z,13.60
2023-05-10T00:53:52.115Z,13.60
2023-05-10T00:55:26.561Z,13.60
2023-05-10T00:56:59.736Z,13.60
2023-05-10T00:58:32.145Z,13.60
2023-05-10T01:00:09.870Z,13.60
2023-05-10T01:01:43.594Z,13.60
2023-05-10T01:03:17.023Z,13.60
2023-05-10T01:04:52.803Z,13.60
2023-05-10T01:06:26.387Z,13.60
2023-05-10T01:08:00.941Z,13.60
2023-05-10T01:09:34.448Z,13.50
2023-05-10T01:11:07.853Z,13.50
2023-05-10T01:12:46.145Z,13.50
2023-05-10T01:14:21.575Z,13.50
2023-05-10T01:15:55.798Z,13.50
2023-05-10T01:17:29.577Z,13.50
2023-05-10T01:19:03.095Z,13.50
2023-05-10T01:20:45.106Z,13.50
2023-05-10T01:22:48.526Z,13.50
2023-05-10T01:24:52.733Z,13.50
2023-05-10T01:27:16.637Z,13.50
2023-05-10T01:29:26.714Z,13.50
2023-05-10T01:31:24.614Z,13.50
2023-05-10T01:33:07.173Z,13.50
2023-05-10T01:34:55.461Z,13.50
2023-05-10T01:36:37.002Z,13.50
2023-05-10T01:38:18.768Z,13.50
2023-05-10T01:40:03.401Z,13.50
2023-05-10T01:41:47.111Z,13.50
2023-05-10T01:43:28.530Z,13.50
2023-05-10T01:45:15.711Z,13.50
2023-05-10T01:46:58.549Z,13.50
2023-05-10T01:48:33.807Z,13.50
2023-05-10T01:50:17.515Z,13.50
2023-05-10T01:51:55.601Z,13.50
2023-05-10T01:53:30.671Z,13.40
2023-05-10T01:55:07.440Z,13.50
2023-05-10T01:56:43.997Z,13.40
2023-05-10T01:58:23.762Z,13.40
2023-05-10T01:59:59.523Z,13.50
2023-05-10T02:01:33.772Z,13.40
2023-05-10T02:03:11.314Z,13.50
2023-05-10T02:04:48.103Z,13.50
2023-05-10T02:06:24.006Z,13.40
2023-05-10T02:07:59.009Z,13.40
2023-05-10T02:09:35.332Z,13.40
2023-05-10T02:11:11.117Z,13.40
2023-05-10T02:12:47.994Z,13.40
2023-05-10T02:14:25.303Z,13.40
2023-05-10T02:16:00.355Z,13.40
2023-05-10T02:17:33.996Z,13.40
2023-05-10T02:19:09.409Z,13.40
2023-05-10T02:20:47.207Z,13.40
2023-05-10T02:22:24.202Z,13.40
2023-05-10T02:23:59.147Z,13.40
2023-05-10T02:25:34.853Z,13.30
2023-05-10T02:27:10.710Z,13.30
2023-05-10T02:28:44.477Z,13.30
2023-05-10T02:30:19.070Z,13.30
2023-05-10T02:31:56.087Z,13.30
2023-05-10T02:33:32.380Z,13.40
2023-05-10T02:35:06.990Z,13.30
2023-05-10T02:36:43.622Z,13.40
2023-05-10T02:38:18.140Z,13.30
2023-05-10T02:39:53.047Z,13.30
2023-05-10T02:41:27.875Z,13.30
2023-05-10T02:43:02.424Z,13.30
2023-05-10T02:44:38.518Z,13.30
2023-05-10T02:46:11.907Z,13.30
2023-05-10T02:47:45.387Z,13.30
2023-05-10T02:49:17.908Z,13.30
2023-05-10T02:50:54.922Z,13.30
2023-05-10T02:52:38.750Z,13.30
2023-05-10T02:54:16.624Z,13.30
2023-05-10T02:55:57.619Z,13.30
2023-05-10T02:57:35.707Z,13.30
2023-05-10T02:59:08.801Z,13.30
2023-05-10T03:00:41.105Z,13.30
2023-05-10T03:02:16.297Z,13.30
2023-05-10T03:03:48.624Z,13.30
2023-05-10T03:05:22.498Z,13.30
2023-05-10T03:06:55.730Z,13.30
2023-05-10T03:08:31.129Z,13.30
2023-05-10T03:10:06.438Z,13.30
2023-05-10T03:11:54.738Z,13.30
2023-05-10T03:13:36.841Z,13.30
2023-05-10T03:15:19.838Z,13.30
2023-05-10T03:17:06.112Z,13.30
2023-05-10T03:18:45.927Z,13.30
2023-05-10T03:20:25.593Z,13.30
2023-05-10T03:22:10.581Z,13.30
2023-05-10T03:23:53.165Z,13.30
2023-05-10T03:25:26.714Z,13.30
2023-05-10T03:27:03.828Z,13.30
2023-05-10T03:28:38.547Z,13.30
2023-05-10T03:30:15.094Z,13.30
2023-05-10T03:31:47.803Z,13.30
2023-05-10T03:33:22.031Z,13.30
2023-05-10T03:34:55.236Z,13.30
2023-05-10T03:36:28.406Z,13.30
2023-05-10T03:38:01.597Z,13.30
2023-05-10T03:39:36.145Z,13.20
2023-05-10T03:41:10.305Z,13.20
2023-05-10T03:42:43.506Z,13.20
2023-05-10T03:44:16.639Z,13.20
2023-05-10T03:45:50.827Z,13.20
2023-05-10T03:47:23.984Z,13.20
2023-05-10T03:48:56.178Z,13.20
2023-05-10T03:50:29.576Z,13.30
2023-05-10T03:52:01.948Z,13.20
2023-05-10T03:53:35.109Z,13.20
2023-05-10T03:55:09.315Z,13.20
2023-05-10T03:56:42.608Z,13.20
2023-05-10T03:58:16.159Z,13.20
2023-05-10T03:59:48.909Z,13.20
2023-05-10T04:01:22.005Z,13.10
2023-05-10T04:02:55.177Z,13.10
2023-05-10T04:04:28.241Z,13.10
2023-05-10T04:06:02.556Z,13.10
2023-05-10T04:07:35.860Z,13.10
2023-05-10T04:09:09.569Z,13.10
2023-05-10T04:10:44.338Z,13.10
2023-05-10T04:12:17.421Z,13.10
2023-05-10T04:13:49.630Z,13.10
2023-05-10T04:15:23.060Z,13.10
2023-05-10T04:16:56.256Z,13.10
2023-05-10T04:18:29.500Z,13.10
2023-05-10T04:20:02.855Z,13.10
2023-05-10T04:21:36.556Z,13.10
2023-05-10T04:23:09.696Z,13.00
2023-05-10T04:24:42.796Z,13.00
2023-05-10T04:26:17.287Z,13.10
2023-05-10T04:27:50.389Z,13.00
2023-05-10T04:29:22.654Z,13.00
2023-05-10T04:31:02.062Z,13.00
2023-05-10T04:32:35.397Z,13.00
2023-05-10T04:34:08.539Z,13.00
2023-05-10T04:35:41.669Z,13.00
2023-05-10T04:37:14.711Z,13.00
2023-05-10T04:38:47.797Z,13.00
2023-05-10T04:40:20.969Z,13.00
2023-05-10T04:41:55.578Z,13.00
2023-05-10T04:43:28.673Z,13.00
2023-05-10T04:45:02.037Z,13.00
2023-05-10T04:46:34.295Z,13.00
2023-05-10T04:48:08.384Z,13.00
2023-05-10T04:49:41.444Z,13.00
2023-05-10T04:51:14.611Z,13.00
2023-05-10T04:52:48.123Z,13.00
2023-05-10T04:54:21.408Z,12.90
2023-05-10T04:55:54.498Z,12.90
2023-05-10T04:57:29.197Z,12.90
2023-05-10T04:59:02.590Z,12.90
2023-05-10T05:00:36.136Z,13.00
2023-05-10T05:02:09.337Z,12.90
2023-05-10T05:03:43.487Z,12.90
2023-05-10T05:05:16.948Z,12.90
2023-05-10T05:06:52.973Z,12.90
2023-05-10T05:08:26.934Z,12.90
2023-05-10T05:10:00.247Z,12.90
2023-05-10T05:11:33.360Z,12.90
2023-05-10T05:13:07.960Z,12.80
2023-05-10T05:14:41.476Z,12.90
2023-05-10T05:16:13.745Z,12.90
2023-05-10T05:17:46.935Z,12.90
2023-05-10T05:19:20.131Z,12.90
2023-05-10T05:20:53.327Z,12.90
2023-05-10T05:22:28.644Z,12.90
2023-05-10T05:24:01.813Z,12.90
2023-05-10T05:25:34.938Z,12.80
2023-05-10T05:27:08.316Z,12.80
2023-05-10T05:28:42.978Z,12.80
2023-05-10T05:30:16.180Z,12.90
2023-05-10T05:31:49.517Z,12.80
2023-05-10T05:33:22.598Z,12.80
2023-05-10T05:35:12.355Z,12.90
2023-05-10T05:36:45.484Z,12.90
2023-05-10T05:38:18.829Z,12.90
2023-05-10T05:39:51.239Z,12.80
2023-05-10T05:41:25.188Z,12.90
2023-05-10T05:42:58.614Z,12.90
2023-05-10T05:44:33.134Z,12.90
2023-05-10T05:46:06.784Z,12.90
2023-05-10T05:47:39.944Z,12.90
2023-05-10T05:49:13.170Z,12.90
2023-05-10T05:50:46.495Z,12.90
2023-05-10T05:52:19.582Z,12.90
2023-05-10T05:53:52.679Z,12.90
2023-05-10T05:55:26.733Z,12.80
2023-05-10T05:57:01.501Z,12.90
2023-05-10T05:58:34.784Z,12.90
2023-05-10T06:00:11.192Z,12.90
2023-05-10T06:01:47.255Z,12.90
2023-05-10T06:03:20.900Z,12.90
2023-05-10T06:04:54.135Z,12.90
2023-05-10T06:06:27.809Z,12.90
2023-05-10T06:08:02.240Z,12.90
2023-05-10T06:09:35.446Z,12.90
2023-05-10T06:11:08.547Z,12.90
2023-05-10T06:12:42.003Z,12.90
2023-05-10T06:14:15.044Z,12.90
2023-05-10T06:15:49.470Z,12.90
2023-05-10T06:17:22.613Z,13.00
2023-05-10T06:18:56.259Z,13.00
2023-05-10T06:20:29.397Z,13.00
2023-05-10T06:22:02.587Z,13.00
2023-05-10T06:23:36.615Z,13.00
2023-05-10T06:25:11.276Z,13.00
2023-05-10T06:26:44.358Z,13.00
2023-05-10T06:28:17.543Z,13.00
2023-05-10T06:29:54.367Z,13.00
2023-05-10T06:31:34.020Z,13.00
2023-05-10T06:33:07.102Z,13.00
2023-05-10T06:34:40.467Z,13.10
2023-05-10T06:36:14.253Z,13.10
2023-05-10T06:37:47.587Z,13.10
2023-05-10T06:39:20.671Z,13.20
2023-05-10T06:40:54.032Z,13.10
2023-05-10T06:42:28.128Z,13.10
2023-05-10T06:44:01.479Z,13.10
2023-05-10T06:45:34.607Z,13.20
2023-05-10T06:47:09.198Z,13.20
2023-05-10T06:48:42.430Z,13.20
2023-05-10T06:50:16.244Z,13.20
2023-05-10T06:51:49.411Z,13.20
2023-05-10T06:53:22.838Z,13.20
2023-05-10T06:54:55.890Z,13.20
2023-05-10T06:56:28.997Z,13.30
2023-05-10T06:58:02.097Z,13.30
2023-05-10T06:59:35.316Z,13.30
2023-05-10T07:01:08.768Z,13.30
2023-05-10T07:02:43.518Z,13.30
2023-05-10T07:04:16.916Z,13.30
2023-05-10T07:05:50.067Z,13.40
2023-05-10T07:07:23.400Z,13.40
2023-05-10T07:08:56.631Z,13.40
2023-05-10T07:10:30.686Z,13.50
2023-05-10T07:12:04.091Z,13.50
2023-05-10T07:13:39.913Z,13.50
2023-05-10T07:15:13.267Z,13.50
2023-05-10T07:16:46.463Z,13.50
2023-05-10T07:18:21.011Z,13.60
2023-05-10T07:19:54.148Z,13.60
2023-05-10T07:21:29.610Z,13.60
2023-05-10T07:23:03.055Z,13.60
2023-05-10T07:24:36.307Z,13.70
2023-05-10T07:26:10.384Z,13.70
2023-05-10T07:27:43.602Z,13.70
2023-05-10T07:29:16.753Z,13.70
2023-05-10T07:30:49.975Z,13.80
2023-05-10T07:32:23.470Z,13.80
2023-05-10T07:33:58.402Z,13.80
2023-05-10T07:35:31.848Z,13.80
2023-05-10T07:37:05.094Z,13.90
2023-05-10T07:38:40.813Z,13.90
2023-05-10T07:40:14.337Z,13.90
2023-05-10T07:41:47.360Z,13.90
2023-05-10T07:43:20.796Z,14.00
2023-05-10T07:44:54.002Z,14.00
2023-05-10T07:46:27.418Z,14.10
2023-05-10T07:48:00.928Z,14.10
2023-05-10T07:49:36.519Z,14.10
2023-05-10T07:51:10.380Z,14.10
2023-05-10T07:52:43.692Z,14.10
2023-05-10T07:54:16.774Z,14.10
2023-05-10T07:55:52.674Z,14.20
2023-05-10T07:57:25.813Z,14.20
2023-05-10T07:58:59.901Z,14.20
2023-05-10T08:00:33.642Z,14.20
2023-05-10T08:02:06.790Z,14.20
2023-05-10T08:03:39.993Z,14.20
2023-05-10T08:05:15.789Z,14.20
2023-05-10T08:06:49.328Z,14.20
2023-05-10T08:08:23.694Z,14.20
2023-05-10T08:09:57.688Z,14.10
2023-05-10T08:11:31.162Z,14.10
2023-05-10T08:13:04.461Z,14.10
2023-05-10T08:14:38.376Z,14.10
2023-05-10T08:16:11.642Z,14.10
2023-05-10T08:17:44.968Z,14.10
2023-05-10T08:19:19.919Z,14.10
2023-05-10T08:20:54.494Z,14.10
2023-05-10T08:22:27.568Z,14.10
2023-05-10T08:24:00.664Z,14.10
2023-05-10T08:25:34.225Z,14.10
2023-05-10T08:27:07.495Z,14.10
2023-05-10T08:28:40.853Z,14.10
2023-05-10T08:30:14.826Z,14.20
2023-05-10T08:31:47.931Z,14.20
2023-05-10T08:33:21.439Z,14.20
2023-05-10T08:34:54.643Z,14.20
2023-05-10T08:36:29.244Z,14.20
2023-05-10T08:38:02.410Z,14.20
2023-05-10T08:39:37.004Z,14.20
2023-05-10T08:41:11.539Z,14.20
2023-05-10T08:42:52.574Z,14.20
2023-05-10T08:44:26.350Z,14.20
2023-05-10T08:46:03.659Z,14.20
2023-05-10T08:47:39.122Z,14.20
2023-05-10T08:49:18.552Z,14.20
2023-05-10T08:50:55.794Z,14.20
2023-05-10T08:52:32.636Z,14.30
2023-05-10T08:54:06.929Z,14.30
2023-05-10T08:55:42.926Z,14.30
2023-05-10T08:57:16.123Z,14.30
2023-05-10T08:58:50.640Z,14.30
2023-05-10T09:00:25.090Z,14.40
2023-05-10T09:02:00.738Z,14.40
2023-05-10T09:03:34.263Z,14.40
2023-05-10T09:05:09.950Z,14.50
2023-05-10T09:06:43.590Z,14.60
2023-05-10T09:08:19.256Z,14.60
2023-05-10T09:09:53.532Z,14.60
2023-05-10T09:11:26.990Z,14.70
2023-05-10T09:13:00.832Z,14.70
2023-05-10T09:14:37.730Z,14.80
2023-05-10T09:16:21.174Z,14.80
2023-05-10T09:17:57.139Z,14.90
2023-05-10T09:19:30.735Z,14.90
2023-05-10T09:21:04.267Z,14.90
2023-05-10T09:22:38.589Z,15.00
2023-05-10T09:24:14.070Z,15.00
2023-05-10T09:25:47.177Z,15.00
2023-05-10T09:27:29.248Z,15.00
2023-05-10T09:29:03.669Z,15.00
2023-05-10T09:30:37.862Z,15.10
2023-05-10T09:32:11.369Z,15.10
2023-05-10T09:33:46.760Z,15.20
2023-05-10T09:35:22.898Z,15.20
2023-05-10T09:36:58.903Z,15.20
2023-05-10T09:38:48.749Z,15.30
2023-05-10T09:40:24.932Z,15.30
2023-05-10T09:41:58.557Z,15.40
2023-05-10T09:43:40.192Z,15.40
2023-05-10T09:45:13.465Z,15.50
2023-05-10T09:46:53.538Z,15.50
2023-05-10T09:48:27.494Z,15.50
2023-05-10T09:50:04.335Z,15.50
2023-05-10T09:51:38.187Z,15.60
2023-05-10T09:53:11.678Z,15.60
2023-05-10T09:54:54.902Z,15.70
2023-05-10T09:56:41.043Z,15.70
2023-05-10T09:58:15.700Z,15.70
2023-05-10T09:59:50.132Z,15.80
2023-05-10T10:01:23.419Z,15.80
2023-05-10T10:02:59.094Z,15.80
2023-05-10T10:04:32.649Z,15.80
2023-05-10T10:06:18.687Z,15.80
2023-05-10T10:08:01.626Z,15.90
2023-05-10T10:09:36.818Z,15.90
2023-05-10T10:11:10.304Z,15.90
2023-05-10T10:12:46.086Z,15.90
2023-05-10T10:14:20.870Z,16.00
2023-05-10T10:15:56.381Z,16.00
2023-05-10T10:17:30.452Z,16.00
2023-05-10T10:19:03.971Z,16.00
2023-05-10T10:20:40.002Z,16.00
2023-05-10T10:22:13.399Z,16.00
2023-05-10T10:23:46.505Z,16.10
2023-05-10T10:25:22.791Z,16.10
2023-05-10T10:27:05.191Z,16.10
2023-05-10T10:28:53.761Z,16.10
2023-05-10T10:30:33.486Z,16.20
2023-05-10T10:32:20.948Z,16.20
2023-05-10T10:34:03.835Z,16.20
2023-05-10T10:35:38.552Z,16.10
2023-05-10T10:37:11.496Z,16.10
2023-05-10T10:39:05.066Z,16.10
2023-05-10T10:40:38.968Z,16.10
2023-05-10T10:42:12.172Z,16.10
2023-05-10T10:43:46.751Z,16.10
2023-05-10T10:45:20.141Z,16.00
2023-05-10T10:47:12.227Z,16.00
2023-05-10T10:48:50.638Z,16.00
2023-05-10T10:50:23.767Z,16.00
2023-05-10T10:52:29.077Z,16.00
2023-05-10T10:54:11.601Z,16.00
2023-05-10T10:55:49.643Z,15.90
2023-05-10T10:57:23.538Z,15.90
2023-05-10T10:59:02.612Z,15.90
2023-05-10T11:00:39.337Z,15.90
2023-05-10T11:02:32.670Z,15.90
2023-05-10T11:04:22.019Z,15.90
2023-05-10T11:06:02.385Z,15.90
2023-05-10T11:07:35.919Z,15.90
2023-05-10T11:09:11.062Z,15.80
2023-05-10T11:11:05.308Z,15.80
2023-05-10T11:12:54.263Z,15.80
2023-05-10T11:14:29.025Z,15.80
2023-05-10T11:16:14.781Z,15.80
2023-05-10T11:17:52.867Z,15.70
2023-05-10T11:19:30.406Z,15.70
2023-05-10T11:21:06.063Z,15.60
2023-05-10T11:22:53.066Z,15.60
2023-05-10T11:24:30.383Z,15.50
2023-05-10T11:26:03.523Z,15.50
2023-05-10T11:27:39.541Z,15.50
2023-05-10T11:29:14.477Z,15.50
2023-05-10T11:30:49.500Z,15.40
2023-05-10T11:32:23.192Z,15.40
2023-05-10T11:33:58.395Z,15.30
2023-05-10T11:35:31.505Z,15.30
2023-05-10T11:37:04.823Z,15.30
2023-05-10T11:38:37.952Z,15.30
2023-05-10T11:40:12.624Z,15.20
2023-05-10T11:41:50.301Z,15.20
2023-05-10T11:43:29.135Z,15.20
2023-05-10T11:45:03.215Z,15.20
2023-05-10T11:46:38.492Z,15.20
2023-05-10T11:48:11.987Z,15.20
2023-05-10T11:49:46.422Z,15.20
2023-05-10T11:51:23.868Z,15.20
2023-05-10T11:52:59.484Z,15.10
2023-05-10T11:54:32.974Z,15.10
2023-05-10T11:56:08.020Z,15.10
2023-05-10T11:57:42.692Z,15.10
2023-05-10T11:59:16.854Z,15.10
2023-05-10T12:00:50.360Z,15.10
2023-05-10T12:02:25.129Z,15.10
2023-05-10T12:04:01.382Z,15.20
2023-05-10T12:05:35.312Z,15.20
2023-05-10T12:07:08.598Z,15.20
2023-05-10T12:08:48.040Z,15.20
2023-05-10T12:10:29.325Z,15.20
2023-05-10T12:12:04.371Z,15.20
2023-05-10T12:13:41.708Z,15.20
2023-05-10T12:15:20.673Z,15.20
2023-05-10T12:16:53.993Z,15.20
2023-05-10T12:18:28.640Z,15.20
2023-05-10T12:20:16.005Z,15.30
2023-05-10T12:21:49.764Z,15.30
2023-05-10T12:23:23.199Z,15.30
2023-05-10T12:24:55.431Z,15.30
2023-05-10T12:26:30.688Z,15.30
2023-05-10T12:28:07.862Z,15.30
2023-05-10T12:29:45.737Z,15.40
2023-05-10T12:31:19.438Z,15.40
2023-05-10T12:32:52.579Z,15.40
2023-05-10T12:34:28.817Z,15.40
2023-05-10T12:36:01.976Z,15.50
2023-05-10T12:37:37.018Z,15.40
2023-05-10T12:39:10.296Z,15.50
2023-05-10T12:40:43.356Z,15.50
2023-05-10T12:42:16.479Z,15.60
2023-05-10T12:43:49.519Z,15.60
2023-05-10T12:45:23.000Z,15.60
2023-05-10T12:46:56.089Z,15.60
2023-05-10T12:48:29.664Z,15.70
2023-05-10T12:50:05.380Z,15.70
2023-05-10T12:51:55.616Z,15.70
2023-05-10T12:53:28.904Z,15.70
2023-05-10T12:55:03.973Z,15.80
2023-05-10T12:56:38.229Z,15.80
2023-05-10T12:58:15.720Z,15.80
2023-05-10T12:59:51.489Z,15.90
2023-05-10T13:01:24.703Z,15.90
2023-05-10T13:02:57.949Z,15.90
2023-05-10T13:04:31.132Z,16.00
2023-05-10T13:06:06.512Z,16.00
2023-05-10T13:07:39.619Z,16.10
2023-05-10T13:09:12.724Z,16.10
2023-05-10T13:10:46.421Z,16.10
2023-05-10T13:12:19.723Z,16.10
2023-05-10T13:13:53.359Z,16.10
2023-05-10T13:15:27.543Z,16.20
2023-05-10T13:17:00.785Z,16.20
2023-05-10T13:18:33.970Z,16.20
2023-05-10T13:20:08.747Z,16.20
2023-05-10T13:21:43.032Z,16.30
2023-05-10T13:23:16.122Z,16.30
2023-05-10T13:24:49.281Z,16.30
2023-05-10T13:26:22.366Z,16.30
2023-05-10T13:27:55.664Z,16.40
2023-05-10T13:29:28.890Z,16.40
2023-05-10T13:31:02.090Z,16.40
2023-05-10T13:32:36.548Z,16.50
2023-05-10T13:34:09.684Z,16.50
2023-05-10T13:35:42.813Z,16.50
2023-05-10T13:37:17.197Z,16.60
2023-05-10T13:38:50.509Z,16.60
2023-05-10T13:40:23.614Z,16.60
2023-05-10T13:41:57.335Z,16.70
2023-05-10T13:43:31.622Z,16.60
2023-05-10T13:45:05.506Z,16.70
2023-05-10T13:46:39.725Z,16.70
2023-05-10T13:48:13.092Z,16.60
2023-05-10T13:49:46.371Z,16.60
2023-05-10T13:51:19.717Z,16.60
2023-05-10T13:52:54.377Z,16.60
2023-05-10T13:54:30.323Z,16.60
2023-05-10T13:56:04.106Z,16.50
2023-05-10T13:57:37.841Z,16.50
2023-05-10T13:59:11.027Z,16.50
2023-05-10T14:00:44.368Z,16.50
2023-05-10T14:02:17.456Z,16.40
2023-05-10T14:03:50.696Z,16.40
2023-05-10T14:05:26.178Z,16.30
2023-05-10T14:06:59.802Z,16.30
2023-05-10T14:08:34.196Z,16.30
2023-05-10T14:10:08.305Z,16.30
2023-05-10T14:11:44.076Z,16.20
2023-05-10T14:13:17.305Z,16.20
2023-05-10T14:14:50.424Z,16.20
2023-05-10T14:16:23.823Z,16.20
2023-05-10T14:17:57.204Z,16.20
2023-05-10T14:19:33.291Z,16.20
2023-05-10T14:21:06.453Z,16.20
2023-05-10T14:22:39.654Z,16.20
2023-05-10T14:24:14.255Z,16.10
2023-05-10T14:25:47.408Z,16.10
2023-05-10T14:27:20.535Z,16.10
2023-05-10T14:28:53.788Z,16.20
2023-05-10T14:30:26.946Z,16.20
2023-05-10T14:32:00.297Z,16.20
2023-05-10T14:33:33.367Z,16.20
2023-05-10T14:35:09.019Z,16.20
2023-05-10T14:36:43.895Z,16.20
2023-05-10T14:38:17.249Z,16.20
2023-05-10T14:39:52.003Z,16.20
2023-05-10T14:41:25.646Z,16.30
2023-05-10T14:42:58.784Z,16.30
2023-05-10T14:44:32.441Z,16.40
2023-05-10T14:46:05.679Z,16.40
2023-05-10T14:47:38.873Z,16.50
2023-05-10T14:49:11.989Z,16.60
2023-05-10T14:50:45.213Z,16.60
2023-05-10T14:52:18.373Z,16.70
2023-05-10T14:53:51.500Z,16.80
2023-05-10T14:55:25.128Z,16.80
2023-05-10T14:56:58.250Z,16.90
2023-05-10T14:58:33.854Z,16.90
2023-05-10T15:00:09.004Z,17.00
2023-05-10T15:01:42.995Z,17.00
2023-05-10T15:03:16.973Z,17.10
2023-05-10T15:04:50.633Z,17.10
2023-05-10T15:06:32.205Z,17.20
2023-05-10T15:08:05.787Z,17.20
2023-05-10T15:09:38.908Z,17.20
2023-05-10T15:11:13.350Z,17.30
2023-05-10T15:12:46.493Z,17.30
2023-05-10T15:14:19.506Z,17.30
2023-05-10T15:15:52.892Z,17.40
2023-05-10T15:17:26.088Z,17.40
2023-05-10T15:18:59.487Z,17.40
2023-05-10T15:20:32.718Z,17.40
2023-05-10T15:22:07.112Z,17.40
2023-05-10T15:23:40.200Z,17.40
2023-05-10T15:25:13.408Z,17.40
2023-05-10T15:26:47.844Z,17.40
2023-05-10T15:28:21.152Z,17.40
2023-05-10T15:29:54.326Z,17.40
2023-05-10T15:31:28.266Z,17.40
2023-05-10T15:33:01.358Z,17.40
2023-05-10T15:34:35.796Z,17.40
2023-05-10T15:36:10.255Z,17.40
2023-05-10T15:37:43.526Z,17.40
2023-05-10T15:39:16.549Z,17.30
2023-05-10T15:40:49.745Z,17.40
2023-05-10T15:42:24.126Z,17.40
2023-05-10T15:43:57.493Z,17.40
2023-05-10T15:45:30.864Z,17.40
2023-05-10T15:47:04.481Z,17.30
2023-05-10T15:48:41.083Z,17.30
2023-05-10T15:50:14.229Z,17.30
2023-05-10T15:51:47.833Z,17.30
2023-05-10T15:53:20.977Z,17.30
2023-05-10T15:54:54.143Z,17.30
2023-05-10T15:56:27.518Z,17.30
2023-05-10T15:58:02.107Z,17.30
2023-05-10T15:59:35.652Z,17.30
2023-05-10T16:01:09.183Z,17.40
2023-05-10T16:02:43.546Z,17.40
2023-05-10T16:04:16.692Z,17.40
2023-05-10T16:05:50.002Z,17.40
2023-05-10T16:07:23.174Z,17.40
2023-05-10T16:08:56.339Z,17.40
2023-05-10T16:10:33.024Z,17.40
2023-05-10T16:12:06.189Z,17.40
2023-05-10T16:13:40.821Z,17.40
2023-05-10T16:15:13.825Z,17.40
2023-05-10T16:16:47.586Z,17.40
2023-05-10T16:18:21.421Z,17.40
2023-05-10T16:19:54.806Z,17.50
2023-05-10T16:21:28.634Z,17.50
2023-05-10T16:23:06.205Z,17.50
2023-05-10T16:24:39.417Z,17.50
2023-05-10T16:26:12.572Z,17.50
2023-05-10T16:27:45.684Z,17.50
2023-05-10T16:29:20.173Z,17.50
2023-05-10T16:30:53.312Z,17.50
2023-05-10T16:32:26.660Z,17.50
2023-05-10T16:33:59.894Z,17.50
2023-05-10T16:35:33.025Z,17.50
2023-05-10T16:37:06.297Z,17.50
2023-05-10T16:38:39.659Z,17.50
2023-05-10T16:40:13.427Z,17.50
2023-05-10T16:41:46.546Z,17.60
2023-05-10T16:43:20.020Z,17.60
2023-05-10T16:44:55.428Z,17.60
2023-05-10T16:46:28.605Z,17.60
2023-05-10T16:48:01.862Z,17.50
2023-05-10T16:49:37.187Z,17.60
2023-05-10T16:51:10.510Z,17.60
2023-05-10T16:52:44.445Z,17.60
2023-05-10T16:54:18.464Z,17.60
2023-05-10T16:55:51.659Z,17.60
2023-05-10T16:57:24.948Z,17.60
2023-05-10T16:58:58.556Z,17.60
2023-05-10T17:00:33.081Z,17.50
2023-05-10T17:02:06.417Z,17.50
2023-05-10T17:03:39.861Z,17.50
2023-05-10T17:05:13.459Z,17.50
2023-05-10T17:06:46.678Z,17.50
2023-05-10T17:08:20.074Z,17.50
2023-05-10T17:09:53.242Z,17.50
2023-05-10T17:11:27.400Z,17.50
2023-05-10T17:13:00.440Z,17.50
2023-05-10T17:14:33.568Z,17.50
2023-05-10T17:16:08.235Z,17.40
2023-05-10T17:17:41.734Z,17.40
2023-05-10T17:19:14.912Z,17.40
2023-05-10T17:20:48.068Z,17.40
2023-05-10T17:22:21.197Z,17.40
2023-05-10T17:23:54.363Z,17.40
2023-05-10T17:25:26.572Z,17.40
2023-05-10T17:27:00.510Z,17.30
2023-05-10T17:28:33.760Z,17.30
2023-05-10T17:30:09.048Z,17.30
2023-05-10T17:31:43.670Z,17.20
2023-05-10T17:33:16.809Z,17.20
2023-05-10T17:34:49.960Z,17.20
2023-05-10T17:36:23.306Z,17.10
2023-05-10T17:37:56.608Z,17.10
2023-05-10T17:39:29.932Z,17.10
2023-05-10T17:41:03.107Z,17.00
2023-05-10T17:42:36.255Z,17.00
2023-05-10T17:44:09.415Z,17.00
2023-05-10T17:45:44.001Z,16.90
2023-05-10T17:47:18.952Z,16.90
2023-05-10T17:48:52.139Z,16.90
2023-05-10T17:50:25.278Z,16.90
2023-05-10T17:51:58.516Z,16.80
2023-05-10T17:53:32.247Z,16.80
2023-05-10T17:55:06.310Z,16.80
2023-05-10T17:56:40.152Z,16.70
2023-05-10T17:58:13.763Z,16.70
2023-05-10T17:59:46.785Z,16.70
2023-05-10T18:01:19.992Z,16.60
2023-05-10T18:02:54.633Z,16.60
2023-05-10T18:04:27.723Z,16.60
2023-05-10T18:06:01.179Z,16.60
2023-05-10T18:07:35.776Z,16.60
2023-05-10T18:09:09.502Z,16.50
2023-05-10T18:10:42.753Z,16.50
2023-05-10T18:12:15.917Z,16.40
2023-05-10T18:13:49.002Z,16.40
2023-05-10T18:15:22.041Z,16.40
2023-05-10T18:16:55.465Z,16.30
2023-05-10T18:18:30.107Z,16.30
2023-05-10T18:20:03.431Z,16.30
2023-05-10T18:21:38.396Z,16.30
2023-05-10T18:23:11.559Z,16.20
2023-05-10T18:24:44.638Z,16.20
2023-05-10T18:26:18.072Z,16.20
2023-05-10T18:27:51.201Z,16.20
2023-05-10T18:29:24.394Z,16.10
2023-05-10T18:30:57.519Z,16.10
2023-05-10T18:32:31.235Z,16.00
2023-05-10T18:34:06.225Z,16.00
2023-05-10T18:35:40.896Z,16.00
2023-05-10T18:37:14.056Z,16.00
2023-05-10T18:38:47.242Z,15.90
2023-05-10T18:40:20.780Z,15.90
2023-05-10T18:41:53.902Z,15.80
2023-05-10T18:43:27.261Z,15.80
2023-05-10T18:45:00.729Z,15.80
2023-05-10T18:46:35.560Z,15.80
2023-05-10T18:48:09.055Z,15.80
2023-05-10T18:49:45.100Z,15.70
2023-05-10T18:51:18.732Z,15.60
2023-05-10T18:52:51.794Z,15.60
2023-05-10T18:54:25.032Z,15.60
2023-05-10T18:55:59.098Z,15.50
2023-05-10T18:57:32.375Z,15.50
2023-05-10T18:59:05.456Z,15.40
2023-05-10T19:00:38.640Z,15.40
2023-05-10T19:02:11.827Z,15.40
2023-05-10T19:03:45.056Z,15.40
2023-05-10T19:05:20.130Z,15.30
2023-05-10T19:06:53.762Z,15.30
2023-05-10T19:08:27.146Z,15.30
2023-05-10T19:10:00.578Z,15.30
2023-05-10T19:11:34.437Z,15.30
2023-05-10T19:13:07.799Z,15.20
2023-05-10T19:14:40.871Z,15.20
2023-05-10T19:16:16.816Z,15.20
2023-05-10T19:17:50.409Z,15.20
2023-05-10T19:19:23.987Z,15.20
2023-05-10T19:20:58.448Z,15.10
2023-05-10T19:22:47.127Z,15.10
2023-05-10T19:24:25.936Z,15.10
2023-05-10T19:25:59.950Z,15.00
2023-05-10T19:27:33.905Z,15.00
2023-05-10T19:29:07.114Z,15.00
2023-05-10T19:30:40.331Z,15.00
2023-05-10T19:32:13.702Z,14.90
2023-05-10T19:33:47.037Z,14.90
2023-05-10T19:35:20.513Z,14.90
2023-05-10T19:36:56.161Z,14.80
2023-05-10T19:38:29.545Z,14.80
2023-05-10T19:40:03.168Z,14.80
2023-05-10T19:41:36.505Z,14.80
2023-05-10T19:43:09.631Z,14.80
2023-05-10T19:44:42.838Z,14.80
2023-05-10T19:46:17.928Z,14.70
2023-05-10T19:47:53.473Z,14.70
2023-05-10T19:49:27.298Z,14.70
2023-05-10T19:51:02.990Z,14.70
2023-05-10T19:52:37.479Z,14.60
2023-05-10T19:54:10.819Z,14.60
2023-05-10T19:55:44.012Z,14.60
2023-05-10T19:57:17.200Z,14.60
2023-05-10T19:58:50.418Z,14.60
2023-05-10T20:00:23.974Z,14.60
2023-05-10T20:01:57.198Z,14.50
2023-05-10T20:03:30.500Z,14.50
2023-05-10T20:05:03.989Z,14.50
2023-05-10T20:06:37.168Z,14.50
2023-05-10T20:08:11.860Z,14.50
2023-05-10T20:09:44.903Z,14.40
2023-05-10T20:11:33.590Z,14.40
2023-05-10T20:13:11.974Z,14.40
2023-05-10T20:14:45.093Z,14.40
2023-05-10T20:16:18.322Z,14.40
2023-05-10T20:17:52.948Z,14.40
2023-05-10T20:19:26.282Z,14.40
2023-05-10T20:21:01.406Z,14.40
2023-05-10T20:22:34.670Z,14.30
2023-05-10T20:24:10.229Z,14.30